Time;durP1;ratioP1;P1;durP2;ratioP2;P2;SDS_P1;SDS_P2;PMS_P1;PMS_P2;Temp;Humidity;BMP_temperature;BMP_pressure;BME280_temperature;BME280_humidity;BME280_pressure;Samples;Min_cycle;Max_cycle;Signal;HPM_P1;HPM_P2
2022/05/18 00:01:42;;;;;;;15.25;8.18;;;;;;;;;;5114533;27;20048;-48
2022/05/18 00:04:08;;;;;;;13.68;7.13;;;;;;;;;;5119307;27;20070;-51
2022/05/18 00:06:33;;;;;;;15.48;9.48;;;;;;;;;;5120406;27;20074;-52
2022/05/18 00:08:58;;;;;;;12.57;9.02;;;;;;;;;;5115319;27;20040;-50
2022/05/18 00:11:24;;;;;;;16.23;7.45;;;;;;;;;;5117618;27;20050;-51
2022/05/18 00:13:50;;;;;;;9.15;7.95;;;;;;;;;;5115787;27;20084;-52
2022/05/18 00:16:16;;;;;;;10.70;8.88;;;;;;;;;;5114725;27;20039;-50
2022/05/18 00:18:41;;;;;;;14.60;9.20;;;;;;;;;;5118389;27;20389;-51
2022/05/18 00:21:07;;;;;;;10.15;9.10;;;;;;;;;;5120328;27;20051;-51
2022/05/18 00:35:43;;;;;;;15.55;8.60;;;;;;;;;;5113810;27;20127;-49
2022/05/18 00:38:09;;;;;;;18.02;10.13;;;;;;;;;;5103615;27;20130;-51
2022/05/18 00:40:36;;;;;;;11.75;8.30;;;;;;;;;;5113742;27;20119;-47
2022/05/18 00:43:02;;;;;;;20.70;10.30;;;;;;;;;;5117423;27;20112;-47
2022/05/18 00:45:27;;;;;;;10.43;7.07;;;;;;;;;;5120252;27;20039;-50
2022/05/18 00:47:53;;;;;;;12.40;8.63;;;;;;;;;;5119277;27;20376;-50
2022/05/18 00:50:31;;;;;;;13.15;8.52;;;;;;;;;;5116723;27;20043;-52
2022/05/18 00:53:04;;;;;;;12.98;8.68;;;;;;;;;;5116520;27;20129;-51
2022/05/18 00:55:33;;;;;;;14.57;9.13;;;;;;;;;;5116510;27;20039;-46
2022/05/18 00:58:01;;;;;;;11.45;9.18;;;;;;;;;;5118753;27;20039;-49
2022/05/18 01:00:26;;;;;;;8.32;7.47;;;;;;;;;;5119271;27;20054;-46
2022/05/18 01:02:57;;;;;;;14.32;8.85;;;;;;;;;;5118331;27;20043;-45
2022/05/18 01:05:23;;;;;;;;;;;;;;;;;;5119215;27;20141;-46
2022/05/18 01:07:49;;;;;;;11.27;9.40;;;;;;;;;;5116354;27;20123;-49
2022/05/18 01:10:15;;;;;;;13.77;8.52;;;;;;;;;;5114751;27;20040;-49
2022/05/18 01:12:40;;;;;;;13.00;8.43;;;;;;;;;;5110735;28;20070;-50
2022/05/18 01:15:07;;;;;;;10.27;7.47;;;;;;;;;;5109827;28;20627;-49
2022/05/18 01:17:34;;;;;;;18.48;7.63;;;;;;;;;;5117029;27;20138;-48
2022/05/18 01:20:01;;;;;;;11.27;7.40;;;;;;;;;;5114175;27;20050;-50
2022/05/18 01:22:32;;;;;;;21.08;9.18;;;;;;;;;;5115486;27;20050;-50
2022/05/18 01:25:16;;;;;;;10.73;7.70;;;;;;;;;;5110455;28;20531;-49
2022/05/18 01:27:42;;;;;;;14.57;7.72;;;;;;;;;;5111174;27;20054;-49
2022/05/18 01:30:07;;;;;;;7.57;5.35;;;;;;;;;;5105859;28;20039;-47
2022/05/18 01:32:44;;;;;;;13.88;6.72;;;;;;;;;;5115224;28;20039;-51
2022/05/18 01:35:12;;;;;;;18.65;7.63;;;;;;;;;;5118192;28;20050;-48
2022/05/18 01:37:37;;;;;;;7.93;7.13;;;;;;;;;;5108038;28;20108;-46
2022/05/18 01:40:22;;;;;;;15.40;6.30;;;;;;;;;;5106566;28;20508;-49
2022/05/18 01:42:51;;;;;;;14.13;5.82;;;;;;;;;;5111794;28;20203;-48
2022/05/18 01:45:16;;;;;;;11.88;7.93;;;;;;;;;;5116347;28;20075;-51
2022/05/18 01:47:42;;;;;;;17.55;7.30;;;;;;;;;;5118724;28;20464;-49
2022/05/18 01:50:10;;;;;;;20.25;8.07;;;;;;;;;;5117657;28;20467;-51
2022/05/18 01:52:36;;;;;;;15.77;8.50;;;;;;;;;;5120208;28;20603;-50
2022/05/18 01:55:02;;;;;;;20.05;7.60;;;;;;;;;;5116987;28;20069;-50
2022/05/18 01:57:27;;;;;;;8.07;6.75;;;;;;;;;;5117648;28;20065;-49
2022/05/18 01:59:53;;;;;;;8.48;7.20;;;;;;;;;;5115752;28;20488;-51
2022/05/18 02:02:18;;;;;;;17.10;8.45;;;;;;;;;;5115527;28;20085;-48
2022/05/18 02:04:44;;;;;;;19.33;7.03;;;;;;;;;;5114731;28;20039;-53
2022/05/18 02:07:09;;;;;;;10.05;7.72;;;;;;;;;;5120779;28;20533;-52
2022/05/18 02:09:35;;;;;;;16.77;7.75;;;;;;;;;;5117097;27;20043;-48
2022/05/18 02:12:01;;;;;;;11.25;6.75;;;;;;;;;;5117772;27;20063;-48
2022/05/18 02:14:26;;;;;;;18.40;7.15;;;;;;;;;;5119252;27;20058;-51
2022/05/18 02:16:52;;;;;;;14.18;7.28;;;;;;;;;;5104317;27;20135;-49
2022/05/18 02:19:18;;;;;;;12.43;7.93;;;;;;;;;;5110523;27;20098;-50
2022/05/18 02:21:43;;;;;;;11.05;8.05;;;;;;;;;;5119465;27;20122;-49
2022/05/18 02:24:09;;;;;;;11.98;6.82;;;;;;;;;;5121339;27;20100;-49
2022/05/18 02:26:34;;;;;;;11.70;6.85;;;;;;;;;;5121754;27;20396;-51
2022/05/18 02:28:59;;;;;;;14.05;8.02;;;;;;;;;;5125694;27;20035;-47
2022/05/18 02:31:25;;;;;;;8.85;6.88;;;;;;;;;;5112981;27;20078;-50
2022/05/18 02:33:50;;;;;;;8.82;6.35;;;;;;;;;;5120806;27;20438;-50
2022/05/18 02:36:16;;;;;;;8.77;5.20;;;;;;;;;;5112715;27;20452;-46
2022/05/18 02:38:42;;;;;;;10.95;7.18;;;;;;;;;;5114961;27;20050;-50
2022/05/18 02:41:07;;;;;;;20.98;7.90;;;;;;;;;;5119658;27;20386;-52
2022/05/18 02:43:37;;;;;;;18.10;8.10;;;;;;;;;;5112527;27;20500;-51
2022/05/18 02:46:23;;;;;;;17.60;9.00;;;;;;;;;;5109866;27;20045;-50
2022/05/18 02:48:51;;;;;;;14.57;6.22;;;;;;;;;;5111342;27;20047;-51
2022/05/18 02:51:16;;;;;;;18.75;7.85;;;;;;;;;;5114029;27;20519;-50
2022/05/18 02:53:42;;;;;;;7.43;6.72;;;;;;;;;;5115973;27;20035;-52
2022/05/18 02:56:08;;;;;;;20.23;7.63;;;;;;;;;;5116928;27;20040;-49
2022/05/18 02:58:38;;;;;;;9.77;7.30;;;;;;;;;;5110494;27;20503;-51
2022/05/18 03:01:07;;;;;;;9.57;8.50;;;;;;;;;;5114040;27;20275;-49
2022/05/18 03:03:34;;;;;;;17.58;7.25;;;;;;;;;;5114212;27;20039;-50
2022/05/18 03:05:59;;;;;;;11.63;8.10;;;;;;;;;;5119624;27;20650;-47
2022/05/18 03:08:24;;;;;;;12.68;6.57;;;;;;;;;;5111514;27;20157;-50
2022/05/18 03:10:50;;;;;;;12.43;7.32;;;;;;;;;;5121431;27;20050;-50
2022/05/18 03:13:15;;;;;;;13.20;7.88;;;;;;;;;;5116802;27;20051;-49
2022/05/18 03:15:40;;;;;;;18.58;6.00;;;;;;;;;;5112037;27;20551;-47
2022/05/18 03:18:05;;;;;;;11.30;8.00;;;;;;;;;;5118956;27;20051;-47
2022/05/18 03:23:33;;;;;;;17.85;7.30;;;;;;;;;;5122301;27;20126;-48
2022/05/18 03:25:59;;;;;;;16.13;6.38;;;;;;;;;;5121248;27;20142;-50
2022/05/18 03:28:24;;;;;;;16.35;7.43;;;;;;;;;;5121571;27;20138;-50
2022/05/18 03:30:49;;;;;;;9.85;6.70;;;;;;;;;;5110370;27;20046;-46
2022/05/18 03:33:14;;;;;;;8.07;7.05;;;;;;;;;;5114415;27;20085;-51
2022/05/18 03:35:40;;;;;;;19.38;7.63;;;;;;;;;;5120845;27;20121;-51
2022/05/18 03:38:05;;;;;;;18.70;7.63;;;;;;;;;;5115745;27;20522;-50
2022/05/18 03:40:38;;;;;;;14.52;7.05;;;;;;;;;;5113076;27;20082;-50
2022/05/18 03:43:04;;;;;;;15.65;6.55;;;;;;;;;;5120014;27;20055;-47
2022/05/18 03:45:30;;;;;;;10.70;6.28;;;;;;;;;;5120562;27;20499;-47
2022/05/18 03:47:55;;;;;;;12.65;5.93;;;;;;;;;;5120411;27;20138;-50
2022/05/18 03:50:21;;;;;;;17.58;7.80;;;;;;;;;;5120329;27;20465;-46
2022/05/18 03:52:46;;;;;;;10.95;6.68;;;;;;;;;;5121022;27;20127;-52
2022/05/18 03:55:11;;;;;;;10.75;6.43;;;;;;;;;;5118259;27;20043;-51
2022/05/18 03:57:37;;;;;;;10.88;6.00;;;;;;;;;;5117067;27;20031;-51
2022/05/18 04:00:04;;;;;;;8.48;5.45;;;;;;;;;;5117143;27;20255;-51
2022/05/18 04:02:30;;;;;;;12.45;6.82;;;;;;;;;;5120686;27;20044;-48
2022/05/18 04:04:55;;;;;;;7.20;5.38;;;;;;;;;;5117432;27;20401;-50
2022/05/18 04:07:20;;;;;;;7.65;6.88;;;;;;;;;;5119899;27;20043;-51
2022/05/18 04:09:47;;;;;;;17.40;6.38;;;;;;;;;;5106751;27;20040;-48
2022/05/18 04:12:13;;;;;;;38.33;9.98;;;;;;;;;;5112863;27;20047;-48
2022/05/18 04:14:38;;;;;;;8.13;5.38;;;;;;;;;;5109520;27;20050;-49
2022/05/18 04:17:03;;;;;;;14.20;5.70;;;;;;;;;;5116528;27;20043;-48
2022/05/18 04:19:29;;;;;;;13.95;6.25;;;;;;;;;;5117979;27;20050;-45
2022/05/18 04:21:54;;;;;;;24.00;6.13;;;;;;;;;;5113189;27;20551;-51
2022/05/18 04:24:19;;;;;;;12.05;6.20;;;;;;;;;;5116229;27;20054;-49
2022/05/18 04:26:45;;;;;;;11.07;5.65;;;;;;;;;;5114402;27;20051;-50
2022/05/18 04:29:11;;;;;;;14.88;7.10;;;;;;;;;;5121108;27;20100;-49
2022/05/18 04:31:36;;;;;;;11.73;7.32;;;;;;;;;;5110772;27;20147;-48
2022/05/18 04:34:01;;;;;;;7.85;5.70;;;;;;;;;;5115415;27;20555;-52
2022/05/18 04:36:27;;;;;;;8.80;6.60;;;;;;;;;;5109812;27;20027;-48
2022/05/18 04:38:52;;;;;;;11.13;7.28;;;;;;;;;;5117402;27;20482;-48
2022/05/18 04:41:17;;;;;;;13.82;7.10;;;;;;;;;;5117465;27;20070;-47
2022/05/18 04:43:43;;;;;;;7.32;5.53;;;;;;;;;;5117398;27;20119;-49
2022/05/18 04:46:08;;;;;;;14.70;6.20;;;;;;;;;;5115629;27;20456;-48
2022/05/18 04:48:34;;;;;;;15.38;9.05;;;;;;;;;;5114208;27;20079;-51
2022/05/18 04:51:04;;;;;;;6.35;5.07;;;;;;;;;;5107547;27;20050;-51
2022/05/18 04:53:29;;;;;;;14.50;6.35;;;;;;;;;;5112314;27;20078;-47
2022/05/18 04:55:54;;;;;;;8.57;5.68;;;;;;;;;;5119703;27;20059;-49
2022/05/18 04:58:20;;;;;;;7.93;5.82;;;;;;;;;;5113633;27;20358;-47
2022/05/18 05:00:49;;;;;;;13.65;7.22;;;;;;;;;;5118511;27;20039;-53
2022/05/18 05:03:14;;;;;;;7.68;5.80;;;;;;;;;;5118779;27;20097;-52
2022/05/18 05:05:39;;;;;;;12.93;7.78;;;;;;;;;;5115844;27;20035;-55
2022/05/18 05:08:05;;;;;;;13.13;6.60;;;;;;;;;;5107749;27;20044;-54
2022/05/18 05:10:30;;;;;;;12.52;6.45;;;;;;;;;;5109613;27;20488;-55
2022/05/18 05:12:55;;;;;;;6.82;5.18;;;;;;;;;;5096344;28;20416;-56
2022/05/18 05:15:21;;;;;;;12.40;5.20;;;;;;;;;;5111156;27;20068;-56
2022/05/18 05:17:46;;;;;;;10.20;6.82;;;;;;;;;;5117143;27;20092;-56
2022/05/18 05:20:12;;;;;;;13.02;5.78;;;;;;;;;;5117077;27;20892;-57
2022/05/18 05:22:37;;;;;;;23.20;6.38;;;;;;;;;;5116173;27;20043;-55
2022/05/18 05:25:03;;;;;;;18.52;8.85;;;;;;;;;;5110737;28;20150;-57
2022/05/18 05:27:28;;;;;;;16.35;8.90;;;;;;;;;;5113498;28;20081;-57
2022/05/18 05:29:53;;;;;;;12.40;10.77;;;;;;;;;;5117922;28;20050;-56
2022/05/18 05:32:19;;;;;;;13.70;8.82;;;;;;;;;;5110573;27;20067;-56
2022/05/18 05:34:45;;;;;;;10.75;8.35;;;;;;;;;;5118107;27;20034;-54
2022/05/18 05:37:10;;;;;;;16.02;9.85;;;;;;;;;;5108183;27;20040;-56
2022/05/18 05:39:36;;;;;;;11.45;9.63;;;;;;;;;;5108566;28;20423;-55
2022/05/18 05:42:01;;;;;;;13.07;8.75;;;;;;;;;;5107207;28;20043;-56
2022/05/18 05:44:27;;;;;;;15.05;8.80;;;;;;;;;;5115451;27;20531;-54
2022/05/18 05:46:52;;;;;;;10.05;7.68;;;;;;;;;;5121094;27;20042;-55
2022/05/18 05:49:17;;;;;;;11.88;8.57;;;;;;;;;;5117235;27;20135;-55
2022/05/18 05:51:42;;;;;;;16.27;8.93;;;;;;;;;;5113668;27;20100;-56
2022/05/18 05:54:08;;;;;;;9.82;6.60;;;;;;;;;;5114767;27;20535;-53
2022/05/18 05:56:33;;;;;;;10.57;7.50;;;;;;;;;;5108734;27;20032;-56
2022/05/18 05:58:59;;;;;;;19.20;6.57;;;;;;;;;;5113434;27;20153;-54
2022/05/18 06:01:24;;;;;;;22.92;8.30;;;;;;;;;;5111535;27;20047;-53
2022/05/18 06:03:49;;;;;;;10.32;6.35;;;;;;;;;;5117388;27;20050;-59
2022/05/18 06:06:15;;;;;;;8.02;6.97;;;;;;;;;;5113532;27;20415;-57
2022/05/18 06:08:41;;;;;;;8.88;7.22;;;;;;;;;;5114193;27;20079;-58
2022/05/18 06:11:07;;;;;;;6.72;6.10;;;;;;;;;;5110094;27;20043;-57
2022/05/18 06:13:33;;;;;;;14.23;6.53;;;;;;;;;;5118512;27;20511;-58
2022/05/18 06:15:58;;;;;;;23.58;7.63;;;;;;;;;;5117268;27;20036;-58
2022/05/18 06:18:24;;;;;;;11.02;6.38;;;;;;;;;;5112775;27;20144;-58
2022/05/18 06:20:49;;;;;;;10.20;6.05;;;;;;;;;;5105239;27;20134;-57
2022/05/18 06:23:15;;;;;;;9.07;5.00;;;;;;;;;;5113769;27;20046;-58
2022/05/18 06:25:40;;;;;;;16.13;5.47;;;;;;;;;;5110989;27;20373;-58
2022/05/18 06:28:07;;;;;;;20.48;7.25;;;;;;;;;;5117734;27;20507;-58
2022/05/18 06:30:32;;;;;;;11.35;5.90;;;;;;;;;;5113782;27;20071;-57
2022/05/18 06:32:58;;;;;;;22.45;5.93;;;;;;;;;;5122296;27;20129;-58
2022/05/18 06:35:23;;;;;;;15.80;5.22;;;;;;;;;;5121478;27;20043;-57
2022/05/18 06:37:49;;;;;;;16.30;6.00;;;;;;;;;;5116136;27;20046;-57
2022/05/18 06:40:15;;;;;;;18.92;7.13;;;;;;;;;;5121590;27;20034;-57
2022/05/18 06:42:40;;;;;;;11.80;6.28;;;;;;;;;;5120225;27;20050;-57
2022/05/18 06:45:08;;;;;;;29.50;7.72;;;;;;;;;;5119138;27;20643;-57
2022/05/18 06:47:37;;;;;;;15.90;5.95;;;;;;;;;;5105732;27;20040;-57
2022/05/18 06:50:03;;;;;;;11.30;5.32;;;;;;;;;;5107821;27;20044;-58
2022/05/18 06:52:29;;;;;;;8.20;5.93;;;;;;;;;;5113053;27;20130;-57
2022/05/18 06:54:54;;;;;;;23.35;7.07;;;;;;;;;;5118391;27;20047;-58
2022/05/18 06:57:19;;;;;;;8.55;4.97;;;;;;;;;;5095711;27;20042;-58
2022/05/18 06:59:45;;;;;;;10.45;7.07;;;;;;;;;;5115339;27;20465;-57
2022/05/18 07:02:10;;;;;;;22.15;6.53;;;;;;;;;;5121364;27;20100;-58
2022/05/18 07:04:35;;;;;;;10.27;6.00;;;;;;;;;;5119217;27;20081;-58
2022/05/18 07:07:01;;;;;;;15.93;9.65;;;;;;;;;;5107734;27;20526;-58
2022/05/18 07:09:28;;;;;;;9.07;6.30;;;;;;;;;;5104921;27;20044;-58
2022/05/18 07:11:53;;;;;;;27.42;9.63;;;;;;;;;;5107657;27;20044;-58
2022/05/18 07:14:26;;;;;;;23.73;8.85;;;;;;;;;;5119241;27;20566;-58
2022/05/18 07:16:51;;;;;;;14.43;7.20;;;;;;;;;;5109560;27;20046;-58
2022/05/18 07:19:18;;;;;;;11.35;6.32;;;;;;;;;;5111147;27;20040;-58
2022/05/18 07:21:44;;;;;;;11.05;5.55;;;;;;;;;;5115464;27;20075;-58
2022/05/18 07:24:09;;;;;;;10.32;4.80;;;;;;;;;;5118154;27;20067;-58
2022/05/18 07:26:35;;;;;;;20.17;5.85;;;;;;;;;;5113139;27;20511;-58
2022/05/18 07:29:01;;;;;;;19.27;6.80;;;;;;;;;;5111645;27;20071;-58
2022/05/18 07:31:27;;;;;;;17.08;10.13;;;;;;;;;;5121535;27;20043;-58
2022/05/18 07:33:52;;;;;;;16.73;8.75;;;;;;;;;;5120097;27;20039;-58
2022/05/18 07:36:18;;;;;;;5.95;5.20;;;;;;;;;;5122752;27;20122;-58
2022/05/18 07:38:44;;;;;;;11.20;7.25;;;;;;;;;;5119276;27;20590;-58
2022/05/18 07:41:11;;;;;;;27.83;8.55;;;;;;;;;;5116619;27;20070;-58
2022/05/18 07:43:37;;;;;;;11.43;4.95;;;;;;;;;;5119918;27;20506;-58
2022/05/18 07:46:02;;;;;;;7.88;6.00;;;;;;;;;;5109267;27;20480;-58
2022/05/18 07:48:28;;;;;;;7.85;4.80;;;;;;;;;;5112634;27;20046;-57
2022/05/18 07:50:53;;;;;;;10.70;6.78;;;;;;;;;;5108088;27;20505;-51
2022/05/18 07:53:19;;;;;;;5.55;4.20;;;;;;;;;;5111898;27;20032;-56
2022/05/18 07:55:44;;;;;;;4.40;2.80;;;;;;;;;;5112245;27;20055;-56
2022/05/18 07:58:11;;;;;;;3.60;2.72;;;;;;;;;;5119167;27;20986;-57
2022/05/18 08:00:37;;;;;;;9.63;3.05;;;;;;;;;;5118074;27;20064;-56
2022/05/18 08:03:02;;;;;;;15.90;6.65;;;;;;;;;;5121034;27;20093;-56
2022/05/18 08:05:30;;;;;;;18.23;6.88;;;;;;;;;;5122950;27;20104;-56
2022/05/18 08:07:55;;;;;;;21.27;5.18;;;;;;;;;;5115839;27;20060;-57
2022/05/18 08:15:49;;;;;;;10.77;5.90;;;;;;;;;;5113243;27;20062;-56
2022/05/18 08:18:16;;;;;;;10.57;5.72;;;;;;;;;;5106759;27;20040;-57
2022/05/18 08:20:45;;;;;;;6.18;4.30;;;;;;;;;;5110466;27;20048;-57
2022/05/18 08:23:10;;;;;;;9.55;7.35;;;;;;;;;;5107683;27;20101;-56
2022/05/18 08:25:36;;;;;;;5.43;4.72;;;;;;;;;;5118051;27;20047;-56
2022/05/18 08:28:02;;;;;;;18.00;6.68;;;;;;;;;;5115179;27;20141;-56
2022/05/18 08:30:31;;;;;;;9.23;6.18;;;;;;;;;;5116918;27;20127;-56
2022/05/18 08:33:00;;;;;;;15.15;4.85;;;;;;;;;;5112020;27;20487;-57
2022/05/18 08:35:27;;;;;;;12.35;7.13;;;;;;;;;;5105620;27;20243;-57
2022/05/18 08:37:53;;;;;;;5.88;5.07;;;;;;;;;;5105173;27;20077;-56
2022/05/18 08:40:38;;;;;;;8.57;5.30;;;;;;;;;;5113960;27;20559;-57
2022/05/18 08:43:06;;;;;;;10.70;4.30;;;;;;;;;;5112951;27;20051;-57
2022/05/18 08:45:33;;;;;;;10.52;7.15;;;;;;;;;;5112796;27;20047;-57
2022/05/18 08:48:03;;;;;;;6.57;4.45;;;;;;;;;;5105663;27;20039;-55
2022/05/18 08:50:30;;;;;;;6.63;5.00;;;;;;;;;;5103775;27;20067;-56
2022/05/18 08:53:02;;;;;;;13.38;6.68;;;;;;;;;;5114260;27;20047;-56
2022/05/18 08:55:27;;;;;;;20.63;7.32;;;;;;;;;;5108210;27;20150;-57
2022/05/18 08:57:54;;;;;;;9.10;4.68;;;;;;;;;;5116208;27;20138;-57
2022/05/18 09:00:25;;;;;;;7.57;6.35;;;;;;;;;;5114373;27;20047;-57
2022/05/18 09:03:06;;;;;;;6.82;4.38;;;;;;;;;;5115935;27;20046;-56
2022/05/18 09:05:43;;;;;;;5.68;3.88;;;;;;;;;;5112932;27;20537;-57
2022/05/18 09:08:12;;;;;;;8.63;5.72;;;;;;;;;;5113537;27;20055;-57
2022/05/18 09:10:44;;;;;;;8.02;5.13;;;;;;;;;;5120189;27;20066;-56
2022/05/18 09:13:09;;;;;;;10.75;6.32;;;;;;;;;;5114162;27;20051;-55
2022/05/18 09:15:40;;;;;;;13.23;5.35;;;;;;;;;;5119149;27;20050;-54
2022/05/18 09:18:24;;;;;;;9.63;4.47;;;;;;;;;;5114470;27;20271;-53
2022/05/18 09:20:54;;;;;;;10.88;4.88;;;;;;;;;;5116185;27;20130;-52
2022/05/18 09:23:49;;;;;;;8.43;4.40;;;;;;;;;;5113635;27;20356;-52
2022/05/18 09:26:14;;;;;;;14.35;7.28;;;;;;;;;;5086451;28;20051;-52
2022/05/18 09:28:39;;;;;;;9.30;5.88;;;;;;;;;;5117091;28;20168;-54
2022/05/18 09:31:08;;;;;;;8.80;4.60;;;;;;;;;;5118762;28;20083;-50
2022/05/18 09:33:36;;;;;;;7.28;5.45;;;;;;;;;;5115798;28;20039;-54
2022/05/18 09:36:28;;;;;;;6.65;3.28;;;;;;;;;;5114489;28;20119;-55
2022/05/18 09:38:53;;;;;;;6.32;4.28;;;;;;;;;;5115242;28;20107;-54
2022/05/18 09:41:20;;;;;;;4.75;4.18;;;;;;;;;;5111112;27;20522;-55
2022/05/18 09:43:49;;;;;;;9.65;4.55;;;;;;;;;;5102078;27;20046;-54
2022/05/18 09:46:16;;;;;;;24.92;10.00;;;;;;;;;;5102231;28;20688;-55
2022/05/18 09:48:46;;;;;;;12.15;5.35;;;;;;;;;;5104009;28;20113;-54
2022/05/18 09:51:11;;;;;;;26.73;6.88;;;;;;;;;;5118872;28;20088;-55
2022/05/18 09:53:37;;;;;;;7.20;4.75;;;;;;;;;;5117573;28;20039;-55
2022/05/18 09:56:07;;;;;;;5.93;4.63;;;;;;;;;;5117805;28;20047;-55
2022/05/18 09:58:35;;;;;;;14.02;4.82;;;;;;;;;;5117960;28;20047;-54
2022/05/18 10:09:39;;;;;;;7.00;5.53;;;;;;;;;;5112959;27;20054;-57
2022/05/18 10:12:31;;;;;;;4.05;3.65;;;;;;;;;;5107108;28;20043;-57
2022/05/18 10:14:59;;;;;;;8.68;5.07;;;;;;;;;;5102187;28;20093;-57
2022/05/18 10:17:30;;;;;;;9.02;4.40;;;;;;;;;;5104197;27;20122;-56
2022/05/18 10:20:00;;;;;;;4.95;3.25;;;;;;;;;;5114468;28;20477;-52
2022/05/18 10:22:28;;;;;;;3.75;3.00;;;;;;;;;;5115485;27;20047;-55
2022/05/18 10:25:06;;;;;;;6.38;3.90;;;;;;;;;;5111465;27;20039;-54
2022/05/18 10:27:34;;;;;;;4.03;2.83;;;;;;;;;;5115133;28;20047;-54
2022/05/18 10:30:18;;;;;;;8.65;6.10;;;;;;;;;;5119480;27;20049;-55
2022/05/18 10:32:58;;;;;;;4.72;4.10;;;;;;;;;;5121548;27;20044;-54
2022/05/18 10:35:31;;;;;;;10.73;5.00;;;;;;;;;;5122077;27;20092;-55
2022/05/18 10:38:00;;;;;;;6.93;4.30;;;;;;;;;;5102426;27;20164;-55
2022/05/18 10:40:26;;;;;;;7.47;4.30;;;;;;;;;;5109105;27;20043;-55
2022/05/18 10:42:53;;;;;;;5.65;4.57;;;;;;;;;;5112160;27;20062;-56
2022/05/18 10:45:27;;;;;;;7.55;4.78;;;;;;;;;;5111877;27;20593;-56
2022/05/18 10:47:55;;;;;;;8.35;3.28;;;;;;;;;;5110837;27;20082;-55
2022/05/18 10:50:24;;;;;;;7.57;5.13;;;;;;;;;;5119055;27;20120;-55
2022/05/18 10:52:54;;;;;;;7.03;4.43;;;;;;;;;;5114835;27;20047;-56
2022/05/18 10:55:22;;;;;;;9.05;2.83;;;;;;;;;;5110398;27;20054;-54
2022/05/18 10:57:57;;;;;;;10.63;5.97;;;;;;;;;;5117629;27;20039;-55
2022/05/18 11:00:26;;;;;;;12.93;5.88;;;;;;;;;;5110934;27;20048;-55
2022/05/18 11:02:52;;;;;;;6.80;3.97;;;;;;;;;;5108213;27;20501;-54
2022/05/18 11:05:20;;;;;;;5.45;3.22;;;;;;;;;;5112075;27;20048;-55
2022/05/18 11:07:46;;;;;;;7.88;4.80;;;;;;;;;;5115571;27;20046;-55
2022/05/18 11:10:12;;;;;;;5.35;3.92;;;;;;;;;;5117541;27;20077;-54
2022/05/18 11:12:43;;;;;;;8.73;5.88;;;;;;;;;;5110433;27;20048;-55
2022/05/18 11:15:10;;;;;;;2.97;2.70;;;;;;;;;;5111873;27;20093;-53
2022/05/18 11:17:54;;;;;;;5.25;4.15;;;;;;;;;;5109557;27;20074;-53
2022/05/18 11:20:39;;;;;;;9.75;7.25;;;;;;;;;;5118387;27;20070;-52
2022/05/18 11:23:17;;;;;;;6.97;4.85;;;;;;;;;;5113178;27;20051;-57
2022/05/18 11:26:01;;;;;;;4.47;3.45;;;;;;;;;;5122055;27;20050;-57
2022/05/18 11:28:45;;;;;;;8.82;2.53;;;;;;;;;;5119553;27;20108;-50
2022/05/18 11:31:28;;;;;;;3.20;2.67;;;;;;;;;;5123317;27;20051;-50
2022/05/18 11:33:54;;;;;;;6.53;4.13;;;;;;;;;;5114042;27;20118;-49
2022/05/18 11:36:27;;;;;;;19.17;8.77;;;;;;;;;;5117844;27;20126;-46
2022/05/18 11:38:52;;;;;;;8.70;4.53;;;;;;;;;;5119021;27;20230;-47
2022/05/18 11:41:27;;;;;;;5.22;4.57;;;;;;;;;;5118783;27;20122;-57
2022/05/18 11:43:58;;;;;;;7.90;4.60;;;;;;;;;;5122587;27;20099;-56
2022/05/18 11:46:27;;;;;;;5.78;5.25;;;;;;;;;;5119920;27;20044;-57
2022/05/18 11:48:52;;;;;;;9.55;5.88;;;;;;;;;;5122075;27;20063;-58
2022/05/18 11:51:38;;;;;;;5.25;4.75;;;;;;;;;;5116095;27;20135;-57
2022/05/18 11:54:09;;;;;;;8.35;6.13;;;;;;;;;;5110332;27;20040;-57
2022/05/18 11:56:34;;;;;;;9.63;6.68;;;;;;;;;;5114703;27;20431;-57
2022/05/18 11:59:10;;;;;;;11.02;7.47;;;;;;;;;;5118611;27;20600;-57
2022/05/18 12:01:48;;;;;;;10.63;6.72;;;;;;;;;;5118781;27;20043;-58
2022/05/18 12:04:32;;;;;;;12.00;6.82;;;;;;;;;;5118108;27;20508;-57
2022/05/18 12:07:03;;;;;;;9.48;5.38;;;;;;;;;;5118338;27;20123;-57
2022/05/18 12:09:39;;;;;;;6.60;4.18;;;;;;;;;;5120919;27;20091;-57
2022/05/18 12:12:20;;;;;;;13.50;5.07;;;;;;;;;;5117541;27;20410;-54
2022/05/18 12:15:24;;;;;;;7.47;5.70;;;;;;;;;;5106405;27;20150;-54
2022/05/18 12:17:55;;;;;;;17.77;5.07;;;;;;;;;;5057276;28;20052;-57
2022/05/18 12:20:43;;;;;;;10.25;5.78;;;;;;;;;;5105734;27;20488;-57
2022/05/18 12:23:11;;;;;;;5.38;4.60;;;;;;;;;;5118541;27;20534;-53
2022/05/18 12:25:36;;;;;;;4.53;4.10;;;;;;;;;;5115184;27;20617;-51
2022/05/18 12:28:03;;;;;;;6.47;4.65;;;;;;;;;;5110220;27;20082;-53
2022/05/18 12:30:33;;;;;;;10.95;3.92;;;;;;;;;;5118758;27;20051;-52
2022/05/18 12:32:59;;;;;;;7.77;5.17;;;;;;;;;;5115727;27;20040;-53
2022/05/18 12:35:35;;;;;;;14.85;4.43;;;;;;;;;;5116728;27;20047;-51
2022/05/18 12:38:03;;;;;;;8.55;5.13;;;;;;;;;;5117323;27;20483;-50
2022/05/18 12:40:35;;;;;;;12.27;5.07;;;;;;;;;;5117597;27;20055;-50
2022/05/18 12:43:19;;;;;;;23.10;4.60;;;;;;;;;;5112507;27;20059;-49
2022/05/18 12:45:47;;;;;;;12.18;5.68;;;;;;;;;;5108302;27;20123;-57
2022/05/18 12:48:12;;;;;;;9.77;5.15;;;;;;;;;;5113514;27;20035;-57
2022/05/18 12:50:43;;;;;;;12.07;5.45;;;;;;;;;;5109934;27;20556;-57
2022/05/18 12:53:13;;;;;;;7.68;3.42;;;;;;;;;;5111251;27;20086;-58
2022/05/18 12:55:41;;;;;;;20.27;5.45;;;;;;;;;;5118221;27;20055;-58
2022/05/18 12:58:10;;;;;;;11.18;6.93;;;;;;;;;;5118539;27;20054;-58
2022/05/18 13:00:46;;;;;;;9.68;4.95;;;;;;;;;;5112391;27;20096;-58
2022/05/18 13:03:11;;;;;;;5.60;4.18;;;;;;;;;;5110045;27;20052;-58
2022/05/18 13:05:41;;;;;;;4.90;3.17;;;;;;;;;;5105061;27;20051;-58
2022/05/18 13:08:15;;;;;;;4.00;3.42;;;;;;;;;;5107253;27;20072;-58
2022/05/18 13:11:00;;;;;;;6.22;4.97;;;;;;;;;;5103352;27;20055;-58
2022/05/18 13:13:26;;;;;;;18.70;7.68;;;;;;;;;;5106217;27;20124;-58
2022/05/18 13:15:54;;;;;;;7.75;5.28;;;;;;;;;;5118258;27;20132;-58
2022/05/18 13:18:25;;;;;;;12.15;6.03;;;;;;;;;;5107732;27;20032;-58
2022/05/18 13:20:54;;;;;;;;;;;;;;;;;;5110150;27;20480;-59
2022/05/18 13:23:25;;;;;;;10.15;6.25;;;;;;;;;;5120108;27;19915;-57
2022/05/18 13:26:10;;;;;;;11.48;6.72;;;;;;;;;;5113066;27;20046;-57
2022/05/18 13:28:36;;;;;;;10.57;5.78;;;;;;;;;;5107006;28;20044;-58
2022/05/18 13:31:02;;;;;;;5.97;4.35;;;;;;;;;;5107692;27;20109;-58
2022/05/18 13:33:35;;;;;;;6.95;4.72;;;;;;;;;;5109526;28;20032;-58
2022/05/18 13:36:00;;;;;;;8.18;5.32;;;;;;;;;;5107353;28;20043;-58
2022/05/18 13:38:26;;;;;;;16.77;4.53;;;;;;;;;;5117213;27;20040;-58
2022/05/18 13:41:06;;;;;;;7.32;4.32;;;;;;;;;;5117996;28;20043;-57
2022/05/18 13:43:33;;;;;;;5.78;3.88;;;;;;;;;;5116954;28;20112;-58
2022/05/18 13:46:04;;;;;;;6.15;5.55;;;;;;;;;;5118012;28;20050;-57
2022/05/18 13:48:29;;;;;;;;;;;;;;;;;;5111408;27;20111;-58
2022/05/18 13:50:56;;;;;;;7.45;5.38;;;;;;;;;;5111947;28;20018;-58
2022/05/18 13:53:24;;;;;;;23.17;6.53;;;;;;;;;;5120281;28;20218;-57
2022/05/18 13:55:54;;;;;;;7.93;5.15;;;;;;;;;;5119206;27;20043;-58
2022/05/18 13:58:20;;;;;;;19.17;6.20;;;;;;;;;;5115922;28;20073;-57
2022/05/18 14:00:48;;;;;;;21.73;5.95;;;;;;;;;;5116864;28;20523;-58
2022/05/18 14:03:18;;;;;;;11.07;7.07;;;;;;;;;;5113554;28;20040;-58
2022/05/18 14:05:43;;;;;;;7.03;5.05;;;;;;;;;;5122340;27;20051;-57
2022/05/18 14:08:30;;;;;;;7.82;6.22;;;;;;;;;;5114547;27;20462;-58
2022/05/18 14:10:55;;;;;;;7.63;6.10;;;;;;;;;;5122722;27;20098;-58
2022/05/18 14:13:21;;;;;;;6.97;5.85;;;;;;;;;;5111360;27;20122;-57
2022/05/18 14:15:49;;;;;;;7.50;3.92;;;;;;;;;;5120319;27;20058;-58
2022/05/18 14:18:16;;;;;;;6.95;5.68;;;;;;;;;;5102697;28;20520;-58
2022/05/18 14:20:43;;;;;;;14.48;6.93;;;;;;;;;;5111667;27;20040;-58
2022/05/18 14:23:14;;;;;;;14.02;8.02;;;;;;;;;;5116928;27;20116;-58
2022/05/18 14:25:42;;;;;;;8.63;5.53;;;;;;;;;;5109823;27;20063;-57
2022/05/18 14:28:10;;;;;;;15.30;6.95;;;;;;;;;;5119781;27;20046;-52
2022/05/18 14:30:38;;;;;;;16.85;5.65;;;;;;;;;;5122319;27;20039;-60
2022/05/18 14:33:22;;;;;;;8.65;5.97;;;;;;;;;;5121675;27;20043;-59
2022/05/18 14:35:49;;;;;;;10.35;7.70;;;;;;;;;;5113536;27;20059;-60
2022/05/18 14:38:20;;;;;;;15.05;3.63;;;;;;;;;;5120476;27;20166;-60
2022/05/18 14:40:46;;;;;;;8.07;4.50;;;;;;;;;;5113668;27;20027;-60
2022/05/18 14:43:13;;;;;;;8.90;6.38;;;;;;;;;;5115727;27;20058;-61
2022/05/18 14:45:43;;;;;;;9.57;6.57;;;;;;;;;;5118062;27;20039;-60
2022/05/18 14:48:15;;;;;;;6.95;3.67;;;;;;;;;;5112536;27;20039;-60
2022/05/18 14:50:44;;;;;;;3.53;2.85;;;;;;;;;;5119396;27;20051;-60
2022/05/18 14:53:14;;;;;;;8.88;7.53;;;;;;;;;;5122317;27;20043;-60
2022/05/18 14:55:57;;;;;;;8.35;5.65;;;;;;;;;;5121142;27;20070;-61
2022/05/18 14:58:24;;;;;;;11.88;5.68;;;;;;;;;;5120164;27;20100;-60
2022/05/18 15:00:51;;;;;;;7.47;3.85;;;;;;;;;;5119181;27;20047;-60
2022/05/18 15:03:22;;;;;;;11.98;4.80;;;;;;;;;;5120558;27;20338;-60
2022/05/18 15:05:49;;;;;;;4.88;3.45;;;;;;;;;;5111103;27;20134;-60
2022/05/18 15:08:16;;;;;;;12.77;5.45;;;;;;;;;;5118780;27;20043;-60
2022/05/18 15:10:42;;;;;;;10.43;5.97;;;;;;;;;;5121650;27;20080;-60
2022/05/18 15:13:18;;;;;;;4.85;3.83;;;;;;;;;;5120006;27;20043;-60